Terminal Aerodrome Forecast
Issued by NWS Sterling, VA

Current Version | Previous Version | Text Only | Print | Product List | Glossary Off
Versions: 1 2 3 4 5 6 7 8 9 10 11 12 13 14 15 16 17 18 19 20 21 22 23 24 25

000
FTUS41 KLWX 230900 AAA
TAFDCA
TAF AMD
KDCA 230903Z 2309/2406 20006KT P6SM FEW080 BKN250
     FM231500 19009KT P6SM FEW040 SCT090
     FM232000 22009KT P6SM SCT040 BKN080
     FM240100 25005KT P6SM -SHRA VCTS SCT040 BKN060CB
     FM240400 33005KT P6SM BKN080=

USA.gov is the U.S. government's official web portal to all federal, state and local government web resources and services.